createdAt,value
2017-08-27T08:28:49.686Z,13.60
2017-08-27T08:31:19.135Z,13.40
2017-08-27T08:33:48.646Z,11.93
2017-08-27T08:36:18.171Z,13.33
2017-08-27T08:38:47.560Z,12.80
2017-08-27T08:41:16.949Z,15.13
2017-08-27T08:43:46.303Z,11.90
2017-08-27T08:46:15.692Z,11.40
2017-08-27T08:48:45.247Z,17.00
2017-08-27T08:51:14.685Z,11.93
2017-08-27T08:53:44.069Z,11.20
2017-08-27T08:56:13.892Z,7.50
2017-08-27T08:58:43.573Z,10.03
2017-08-27T09:01:13.103Z,11.73
2017-08-27T09:03:42.472Z,8.97
2017-08-27T09:06:11.855Z,10.97
2017-08-27T09:08:41.249Z,9.17
2017-08-27T09:11:10.653Z,14.00
2017-08-27T09:13:40.093Z,11.90
2017-08-27T09:16:09.509Z,8.10
2017-08-27T09:18:38.977Z,7.60
2017-08-27T09:21:08.407Z,13.13
2017-08-27T09:23:37.846Z,10.23
2017-08-27T09:26:07.395Z,13.03
2017-08-27T09:28:36.816Z,13.20
2017-08-27T09:31:06.266Z,11.70
2017-08-27T09:33:35.752Z,10.80
2017-08-27T09:36:05.270Z,12.70
2017-08-27T09:38:34.639Z,7.87
2017-08-27T09:41:04.039Z,12.70
2017-08-27T09:43:33.388Z,9.23
2017-08-27T09:46:02.847Z,12.60
2017-08-27T09:48:32.248Z,7.60
2017-08-27T09:51:01.707Z,8.03
2017-08-27T09:53:31.452Z,11.63
2017-08-27T09:56:01.222Z,10.33
2017-08-27T09:58:30.605Z,9.83
2017-08-27T10:01:00.025Z,10.53
2017-08-27T10:03:29.732Z,13.30
2017-08-27T10:05:59.207Z,10.33
2017-08-27T10:08:28.616Z,8.60
2017-08-27T10:10:58.057Z,9.13
2017-08-27T10:13:27.472Z,9.87
2017-08-27T10:15:56.877Z,9.63
2017-08-27T10:18:26.270Z,7.70
2017-08-27T10:20:55.738Z,8.03
2017-08-27T10:23:25.146Z,6.73
2017-08-27T10:25:54.632Z,6.07
2017-08-27T10:28:24.096Z,7.80
2017-08-27T10:30:53.574Z,8.13
2017-08-27T10:33:22.971Z,6.37
2017-08-27T10:35:52.586Z,11.57
2017-08-27T10:38:21.954Z,8.20
2017-08-27T10:40:51.385Z,6.53
2017-08-27T10:43:20.817Z,11.37
2017-08-27T10:45:50.244Z,8.50
2017-08-27T10:48:19.688Z,7.90
2017-08-27T10:50:49.159Z,7.47
2017-08-27T10:53:18.633Z,6.03
2017-08-27T10:55:48.091Z,4.70
2017-08-27T10:58:17.631Z,5.83
2017-08-27T11:00:47.036Z,8.33
2017-08-27T11:03:16.761Z,9.27
2017-08-27T11:05:46.533Z,8.03
2017-08-27T11:08:15.910Z,9.93
2017-08-27T11:10:45.316Z,6.83
2017-08-27T11:13:15.382Z,7.23
2017-08-27T11:15:44.836Z,6.47
2017-08-27T11:18:14.296Z,9.27
2017-08-27T11:20:43.837Z,7.90
2017-08-27T11:23:13.333Z,10.40
2017-08-27T11:25:42.791Z,7.37
2017-08-27T11:28:13.104Z,15.30
2017-08-27T11:30:42.584Z,11.17
2017-08-27T11:33:14.196Z,11.03
2017-08-27T11:35:43.615Z,7.70
2017-08-27T11:38:13.035Z,6.10
2017-08-27T11:40:42.814Z,8.67
2017-08-27T11:43:13.835Z,6.20
2017-08-27T11:45:44.833Z,7.60
2017-08-27T11:48:14.558Z,7.53
2017-08-27T11:50:45.904Z,5.73
2017-08-27T11:53:16.945Z,7.13
2017-08-27T11:55:47.835Z,9.67
2017-08-27T11:58:17.569Z,8.77
2017-08-27T12:00:47.048Z,12.03
2017-08-27T12:03:17.045Z,7.30
2017-08-27T12:05:46.484Z,7.80
2017-08-27T12:08:16.225Z,5.40
2017-08-27T12:10:45.887Z,6.90
2017-08-27T12:13:15.279Z,3.50
2017-08-27T12:15:44.746Z,6.03
2017-08-27T12:18:14.748Z,7.60
2017-08-27T12:20:44.312Z,6.60
2017-08-27T12:23:13.762Z,9.20
2017-08-27T12:25:43.424Z,8.93
2017-08-27T12:28:12.940Z,17.10
2017-08-27T12:30:42.851Z,7.20
2017-08-27T12:33:13.263Z,3.53
2017-08-27T12:35:44.180Z,4.70
2017-08-27T12:38:14.680Z,6.90
2017-08-27T12:40:44.120Z,8.60
2017-08-27T12:43:13.665Z,6.10
2017-08-27T12:45:43.044Z,5.70
2017-08-27T12:48:13.065Z,4.23
2017-08-27T12:50:42.513Z,9.77
2017-08-27T12:53:12.067Z,8.23
2017-08-27T12:55:41.699Z,3.80
2017-08-27T12:58:11.164Z,8.63
2017-08-27T13:00:40.674Z,5.00
2017-08-27T13:03:10.149Z,5.70
2017-08-27T13:05:39.638Z,4.63
2017-08-27T13:08:09.240Z,6.20
2017-08-27T13:10:38.969Z,7.03
2017-08-27T13:13:08.474Z,8.37
2017-08-27T13:15:38.058Z,7.77
2017-08-27T13:18:10.592Z,3.80
2017-08-27T13:20:40.261Z,3.50
2017-08-27T13:23:09.978Z,5.63
2017-08-27T13:25:39.687Z,4.73
2017-08-27T13:28:09.333Z,4.90
2017-08-27T13:30:38.780Z,3.83
2017-08-27T13:33:08.442Z,6.13
2017-08-27T13:35:38.719Z,10.37
2017-08-27T13:38:08.097Z,5.80
2017-08-27T13:40:38.049Z,3.80
2017-08-27T13:43:07.532Z,4.57
2017-08-27T13:45:37.116Z,5.40
2017-08-27T13:48:06.584Z,3.20
2017-08-27T13:50:36.109Z,7.60
2017-08-27T13:53:05.748Z,5.07
2017-08-27T13:55:35.278Z,4.30
2017-08-27T13:58:04.685Z,5.57
2017-08-27T14:00:34.297Z,2.83
2017-08-27T14:03:04.066Z,3.63
2017-08-27T14:05:33.630Z,3.50
2017-08-27T14:08:03.235Z,6.87
2017-08-27T14:10:32.701Z,6.13
2017-08-27T14:13:02.073Z,3.23
2017-08-27T14:15:31.505Z,7.40
2017-08-27T14:18:00.890Z,5.83
2017-08-27T14:20:31.097Z,3.23
2017-08-27T14:23:00.602Z,4.53
2017-08-27T14:25:30.347Z,2.27
2017-08-27T14:28:00.213Z,2.17
2017-08-27T14:30:29.646Z,3.57
2017-08-27T14:32:59.362Z,2.97
2017-08-27T14:35:42.767Z,3.13
2017-08-27T14:38:14.498Z,6.17
2017-08-27T14:40:44.166Z,5.10
2017-08-27T14:43:13.711Z,7.03
2017-08-27T14:45:43.551Z,2.47
2017-08-27T14:48:17.472Z,5.63
2017-08-27T14:51:13.451Z,3.90
2017-08-27T14:53:43.049Z,5.50
2017-08-27T14:56:12.460Z,3.77
2017-08-27T14:58:41.809Z,2.23
2017-08-27T15:01:11.625Z,5.20
2017-08-27T15:03:41.055Z,2.80
2017-08-27T15:06:10.675Z,3.80
2017-08-27T15:08:40.184Z,2.63
2017-08-27T15:11:09.617Z,3.23
2017-08-27T15:13:39.357Z,3.50
2017-08-27T15:16:08.910Z,3.97
2017-08-27T15:18:38.405Z,2.47
2017-08-27T15:21:07.907Z,4.17
2017-08-27T15:23:37.416Z,3.83
2017-08-27T15:26:06.925Z,5.80
2017-08-27T15:28:36.445Z,3.87
2017-08-27T15:31:06.084Z,2.90
2017-08-27T15:33:35.649Z,4.20
2017-08-27T15:36:07.332Z,2.93
2017-08-27T15:38:37.725Z,3.73
2017-08-27T15:41:07.468Z,3.63
2017-08-27T15:43:37.550Z,3.43
2017-08-27T15:46:07.276Z,3.67
2017-08-27T15:48:36.866Z,2.83
2017-08-27T15:51:07.836Z,6.03
2017-08-27T15:53:37.216Z,2.30
2017-08-27T15:56:06.760Z,3.33
2017-08-27T15:58:36.198Z,3.63
2017-08-27T16:01:05.705Z,2.40
2017-08-27T16:03:35.116Z,2.60
2017-08-27T16:06:04.540Z,3.00
2017-08-27T16:08:34.156Z,2.07
2017-08-27T16:11:03.671Z,7.30
2017-08-27T16:13:33.101Z,3.03
2017-08-27T16:16:02.617Z,3.93
2017-08-27T16:18:32.004Z,2.97
2017-08-27T16:21:01.461Z,3.73
2017-08-27T16:23:32.634Z,3.40
2017-08-27T16:26:02.319Z,3.77
2017-08-27T16:28:31.700Z,8.13
2017-08-27T16:31:01.108Z,4.50
2017-08-27T16:33:30.650Z,3.63
2017-08-27T16:36:00.608Z,3.30
2017-08-27T16:38:31.616Z,2.13
2017-08-27T16:41:01.101Z,3.07
2017-08-27T16:43:30.498Z,2.60
2017-08-27T16:46:00.037Z,5.27
2017-08-27T16:48:29.493Z,5.50
2017-08-27T16:50:58.955Z,2.23
2017-08-27T16:53:28.358Z,5.90
2017-08-27T16:55:58.615Z,5.93
2017-08-27T16:58:28.065Z,3.00
2017-08-27T17:00:57.491Z,3.37
2017-08-27T17:03:26.890Z,2.90
2017-08-27T17:05:56.436Z,5.30
2017-08-27T17:08:25.811Z,2.30
2017-08-27T17:10:55.843Z,11.70
2017-08-27T17:13:25.276Z,3.87
2017-08-27T17:15:54.739Z,3.77
2017-08-27T17:18:24.291Z,1.83
2017-08-27T17:20:53.764Z,3.53
2017-08-27T17:23:23.155Z,8.07
2017-08-27T17:25:52.673Z,2.90
2017-08-27T17:28:22.136Z,4.17
2017-08-27T17:30:51.612Z,3.90
2017-08-27T17:33:21.933Z,2.90
2017-08-27T17:35:51.391Z,2.43
2017-08-27T17:38:20.738Z,2.90
